sensor_id;sensor_type;location;lat;lon;timestamp;P1;durP1;ratioP1;P2;durP2;ratioP2
11255;SDS011;5685;52.384;13.420;2023-04-21T00:02:19;75.17;;;40.07;;
11255;SDS011;5685;52.384;13.420;2023-04-21T00:05:21;75.33;;;40.20;;
11255;SDS011;5685;52.384;13.420;2023-04-21T00:08:24;74.80;;;39.87;;
11255;SDS011;5685;52.384;13.420;2023-04-21T00:11:27;75.10;;;40.07;;
11255;SDS011;5685;52.384;13.420;2023-04-21T00:14:30;75.10;;;40.00;;
11255;SDS011;5685;52.384;13.420;2023-04-21T00:17:34;75.03;;;40.10;;
11255;SDS011;5685;52.384;13.420;2023-04-21T00:20:36;75.10;;;40.00;;
11255;SDS011;5685;52.384;13.420;2023-04-21T00:23:39;74.67;;;39.80;;
11255;SDS011;5685;52.384;13.420;2023-04-21T00:26:41;75.00;;;40.07;;
11255;SDS011;5685;52.384;13.420;2023-04-21T00:29:44;75.03;;;40.20;;
11255;SDS011;5685;52.384;13.420;2023-04-21T00:32:48;75.00;;;40.07;;
11255;SDS011;5685;52.384;13.420;2023-04-21T00:35:50;75.07;;;40.10;;
11255;SDS011;5685;52.384;13.420;2023-04-21T00:38:53;75.30;;;40.10;;
11255;SDS011;5685;52.384;13.420;2023-04-21T00:41:56;75.50;;;40.20;;
11255;SDS011;5685;52.384;13.420;2023-04-21T00:44:58;75.10;;;40.00;;
11255;SDS011;5685;52.384;13.420;2023-04-21T00:48:02;75.50;;;40.17;;
11255;SDS011;5685;52.384;13.420;2023-04-21T00:51:05;74.93;;;39.90;;
11255;SDS011;5685;52.384;13.420;2023-04-21T00:54:09;75.40;;;40.20;;
11255;SDS011;5685;52.384;13.420;2023-04-21T00:57:13;75.27;;;40.10;;
11255;SDS011;5685;52.384;13.420;2023-04-21T01:00:15;75.13;;;40.00;;
11255;SDS011;5685;52.384;13.420;2023-04-21T01:03:20;75.20;;;40.00;;
11255;SDS011;5685;52.384;13.420;2023-04-21T01:06:22;74.80;;;39.90;;
11255;SDS011;5685;52.384;13.420;2023-04-21T01:09:25;75.10;;;40.07;;
11255;SDS011;5685;52.384;13.420;2023-04-21T01:12:28;75.30;;;40.10;;
11255;SDS011;5685;52.384;13.420;2023-04-21T01:15:31;74.73;;;39.80;;
11255;SDS011;5685;52.384;13.420;2023-04-21T01:18:35;75.30;;;40.00;;
11255;SDS011;5685;52.384;13.420;2023-04-21T01:21:39;74.97;;;39.97;;
11255;SDS011;5685;52.384;13.420;2023-04-21T01:24:42;75.60;;;40.20;;
11255;SDS011;5685;52.384;13.420;2023-04-21T01:27:46;75.10;;;40.07;;
11255;SDS011;5685;52.384;13.420;2023-04-21T01:30:48;75.00;;;40.00;;
11255;SDS011;5685;52.384;13.420;2023-04-21T01:33:51;75.47;;;40.17;;
11255;SDS011;5685;52.384;13.420;2023-04-21T01:36:55;75.43;;;40.20;;
11255;SDS011;5685;52.384;13.420;2023-04-21T01:39:58;75.40;;;40.20;;
11255;SDS011;5685;52.384;13.420;2023-04-21T01:43:04;74.93;;;39.93;;
11255;SDS011;5685;52.384;13.420;2023-04-21T01:46:06;75.00;;;39.80;;
11255;SDS011;5685;52.384;13.420;2023-04-21T01:49:09;75.30;;;40.00;;
11255;SDS011;5685;52.384;13.420;2023-04-21T01:52:13;75.47;;;40.00;;
11255;SDS011;5685;52.384;13.420;2023-04-21T01:55:16;75.50;;;40.20;;
11255;SDS011;5685;52.384;13.420;2023-04-21T01:58:19;74.90;;;40.00;;
11255;SDS011;5685;52.384;13.420;2023-04-21T02:01:21;74.60;;;39.80;;
11255;SDS011;5685;52.384;13.420;2023-04-21T02:04:24;75.27;;;40.03;;
11255;SDS011;5685;52.384;13.420;2023-04-21T02:07:28;75.37;;;40.17;;
11255;SDS011;5685;52.384;13.420;2023-04-21T02:10:30;75.03;;;39.97;;
11255;SDS011;5685;52.384;13.420;2023-04-21T02:13:33;75.10;;;40.13;;
11255;SDS011;5685;52.384;13.420;2023-04-21T02:16:36;74.60;;;39.77;;
11255;SDS011;5685;52.384;13.420;2023-04-21T02:19:38;74.73;;;39.87;;
11255;SDS011;5685;52.384;13.420;2023-04-21T02:22:42;75.30;;;40.20;;
11255;SDS011;5685;52.384;13.420;2023-04-21T02:25:45;75.07;;;40.00;;
11255;SDS011;5685;52.384;13.420;2023-04-21T02:28:47;75.00;;;40.00;;
11255;SDS011;5685;52.384;13.420;2023-04-21T02:31:50;74.97;;;39.90;;
11255;SDS011;5685;52.384;13.420;2023-04-21T02:34:52;74.93;;;39.93;;
11255;SDS011;5685;52.384;13.420;2023-04-21T02:37:56;74.67;;;39.77;;
11255;SDS011;5685;52.384;13.420;2023-04-21T02:41:03;74.60;;;40.00;;
11255;SDS011;5685;52.384;13.420;2023-04-21T02:44:06;74.77;;;39.90;;
11255;SDS011;5685;52.384;13.420;2023-04-21T02:47:08;75.40;;;40.17;;
11255;SDS011;5685;52.384;13.420;2023-04-21T02:50:12;75.03;;;40.00;;
11255;SDS011;5685;52.384;13.420;2023-04-21T02:53:17;74.90;;;39.87;;
11255;SDS011;5685;52.384;13.420;2023-04-21T02:56:19;75.00;;;39.90;;
11255;SDS011;5685;52.384;13.420;2023-04-21T02:59:22;75.03;;;40.00;;
11255;SDS011;5685;52.384;13.420;2023-04-21T03:02:24;75.17;;;40.00;;
11255;SDS011;5685;52.384;13.420;2023-04-21T03:05:27;75.00;;;40.00;;
11255;SDS011;5685;52.384;13.420;2023-04-21T03:08:31;74.70;;;39.80;;
11255;SDS011;5685;52.384;13.420;2023-04-21T03:11:34;74.30;;;39.57;;
11255;SDS011;5685;52.384;13.420;2023-04-21T03:14:36;75.20;;;40.10;;
11255;SDS011;5685;52.384;13.420;2023-04-21T03:17:39;74.83;;;39.90;;
11255;SDS011;5685;52.384;13.420;2023-04-21T03:20:42;74.87;;;39.93;;
11255;SDS011;5685;52.384;13.420;2023-04-21T03:23:46;74.50;;;39.77;;
11255;SDS011;5685;52.384;13.420;2023-04-21T03:26:48;75.30;;;40.00;;
11255;SDS011;5685;52.384;13.420;2023-04-21T03:29:52;74.80;;;39.90;;
11255;SDS011;5685;52.384;13.420;2023-04-21T03:32:54;74.87;;;39.90;;
11255;SDS011;5685;52.384;13.420;2023-04-21T03:35:57;74.60;;;39.70;;
11255;SDS011;5685;52.384;13.420;2023-04-21T03:39:01;75.27;;;40.30;;
11255;SDS011;5685;52.384;13.420;2023-04-21T03:42:04;74.90;;;39.83;;
11255;SDS011;5685;52.384;13.420;2023-04-21T03:45:07;75.57;;;40.30;;
11255;SDS011;5685;52.384;13.420;2023-04-21T03:48:10;74.90;;;39.83;;
11255;SDS011;5685;52.384;13.420;2023-04-21T03:51:13;75.20;;;40.00;;
11255;SDS011;5685;52.384;13.420;2023-04-21T03:54:17;74.73;;;39.77;;
11255;SDS011;5685;52.384;13.420;2023-04-21T03:57:19;75.00;;;39.77;;
11255;SDS011;5685;52.384;13.420;2023-04-21T04:00:22;74.97;;;40.00;;
11255;SDS011;5685;52.384;13.420;2023-04-21T04:03:25;75.50;;;40.30;;
11255;SDS011;5685;52.384;13.420;2023-04-21T04:06:27;74.90;;;39.83;;
11255;SDS011;5685;52.384;13.420;2023-04-21T04:09:32;75.07;;;40.10;;
11255;SDS011;5685;52.384;13.420;2023-04-21T04:12:35;74.90;;;39.90;;
11255;SDS011;5685;52.384;13.420;2023-04-21T04:15:37;74.73;;;40.00;;
11255;SDS011;5685;52.384;13.420;2023-04-21T04:18:40;75.17;;;40.00;;
11255;SDS011;5685;52.384;13.420;2023-04-21T04:21:42;75.50;;;40.20;;
11255;SDS011;5685;52.384;13.420;2023-04-21T04:24:46;75.10;;;39.90;;
11255;SDS011;5685;52.384;13.420;2023-04-21T04:27:50;74.80;;;39.80;;
11255;SDS011;5685;52.384;13.420;2023-04-21T04:30:52;75.17;;;40.10;;
11255;SDS011;5685;52.384;13.420;2023-04-21T04:33:55;74.67;;;39.70;;
11255;SDS011;5685;52.384;13.420;2023-04-21T04:36:58;74.87;;;39.90;;
11255;SDS011;5685;52.384;13.420;2023-04-21T04:40:05;75.10;;;39.90;;
11255;SDS011;5685;52.384;13.420;2023-04-21T04:43:11;75.20;;;39.90;;
11255;SDS011;5685;52.384;13.420;2023-04-21T04:46:14;74.67;;;39.70;;
11255;SDS011;5685;52.384;13.420;2023-04-21T04:49:19;74.70;;;39.90;;
11255;SDS011;5685;52.384;13.420;2023-04-21T04:52:22;74.53;;;39.67;;
11255;SDS011;5685;52.384;13.420;2023-04-21T04:55:26;74.97;;;39.90;;
11255;SDS011;5685;52.384;13.420;2023-04-21T04:58:29;74.30;;;39.57;;
11255;SDS011;5685;52.384;13.420;2023-04-21T05:01:32;74.93;;;39.80;;
11255;SDS011;5685;52.384;13.420;2023-04-21T05:04:34;74.73;;;39.80;;
11255;SDS011;5685;52.384;13.420;2023-04-21T05:07:37;74.60;;;39.67;;
11255;SDS011;5685;52.384;13.420;2023-04-21T05:10:41;74.37;;;39.80;;
11255;SDS011;5685;52.384;13.420;2023-04-21T05:13:44;74.87;;;39.90;;
11255;SDS011;5685;52.384;13.420;2023-04-21T05:16:46;74.20;;;39.53;;
11255;SDS011;5685;52.384;13.420;2023-04-21T05:19:49;74.10;;;39.33;;
11255;SDS011;5685;52.384;13.420;2023-04-21T05:22:51;74.77;;;39.70;;
11255;SDS011;5685;52.384;13.420;2023-04-21T05:25:55;74.87;;;39.73;;
11255;SDS011;5685;52.384;13.420;2023-04-21T05:28:58;74.47;;;39.57;;
11255;SDS011;5685;52.384;13.420;2023-04-21T05:32:00;74.93;;;39.77;;
11255;SDS011;5685;52.384;13.420;2023-04-21T05:35:03;75.10;;;39.93;;
11255;SDS011;5685;52.384;13.420;2023-04-21T05:38:06;74.80;;;39.70;;
11255;SDS011;5685;52.384;13.420;2023-04-21T05:41:10;74.80;;;39.90;;
11255;SDS011;5685;52.384;13.420;2023-04-21T05:44:14;74.77;;;39.80;;
11255;SDS011;5685;52.384;13.420;2023-04-21T05:47:17;74.77;;;39.70;;
11255;SDS011;5685;52.384;13.420;2023-04-21T05:50:20;75.10;;;39.80;;
11255;SDS011;5685;52.384;13.420;2023-04-21T05:53:25;75.00;;;39.80;;
11255;SDS011;5685;52.384;13.420;2023-04-21T05:56:29;74.90;;;39.87;;
11255;SDS011;5685;52.384;13.420;2023-04-21T05:59:32;74.97;;;39.87;;
11255;SDS011;5685;52.384;13.420;2023-04-21T06:02:34;74.57;;;39.60;;
11255;SDS011;5685;52.384;13.420;2023-04-21T06:05:37;74.67;;;39.70;;
11255;SDS011;5685;52.384;13.420;2023-04-21T06:08:40;74.63;;;39.63;;
11255;SDS011;5685;52.384;13.420;2023-04-21T06:11:44;74.43;;;39.50;;
11255;SDS011;5685;52.384;13.420;2023-04-21T06:14:46;74.80;;;39.70;;
11255;SDS011;5685;52.384;13.420;2023-04-21T06:17:51;74.50;;;39.60;;
11255;SDS011;5685;52.384;13.420;2023-04-21T06:20:55;74.57;;;39.57;;
11255;SDS011;5685;52.384;13.420;2023-04-21T06:23:58;74.70;;;39.70;;
11255;SDS011;5685;52.384;13.420;2023-04-21T06:27:02;74.87;;;39.67;;
11255;SDS011;5685;52.384;13.420;2023-04-21T06:30:05;74.67;;;39.70;;
11255;SDS011;5685;52.384;13.420;2023-04-21T06:33:08;75.27;;;39.93;;
11255;SDS011;5685;52.384;13.420;2023-04-21T06:36:11;74.80;;;39.80;;
11255;SDS011;5685;52.384;13.420;2023-04-21T06:39:13;74.63;;;39.57;;
11255;SDS011;5685;52.384;13.420;2023-04-21T06:42:17;74.80;;;39.60;;
11255;SDS011;5685;52.384;13.420;2023-04-21T06:45:20;74.80;;;39.77;;
11255;SDS011;5685;52.384;13.420;2023-04-21T06:48:23;75.07;;;39.87;;
11255;SDS011;5685;52.384;13.420;2023-04-21T06:51:27;75.03;;;39.90;;
11255;SDS011;5685;52.384;13.420;2023-04-21T06:54:31;74.60;;;39.60;;
11255;SDS011;5685;52.384;13.420;2023-04-21T06:57:35;74.80;;;39.70;;
11255;SDS011;5685;52.384;13.420;2023-04-21T07:00:38;75.07;;;39.80;;
11255;SDS011;5685;52.384;13.420;2023-04-21T07:03:40;74.87;;;39.60;;
11255;SDS011;5685;52.384;13.420;2023-04-21T07:06:43;74.80;;;39.70;;
11255;SDS011;5685;52.384;13.420;2023-04-21T07:09:45;74.63;;;39.80;;
11255;SDS011;5685;52.384;13.420;2023-04-21T07:12:50;74.40;;;39.67;;
11255;SDS011;5685;52.384;13.420;2023-04-21T07:15:53;74.70;;;39.70;;
11255;SDS011;5685;52.384;13.420;2023-04-21T07:18:55;74.87;;;39.80;;
11255;SDS011;5685;52.384;13.420;2023-04-21T07:21:58;74.63;;;39.63;;
11255;SDS011;5685;52.384;13.420;2023-04-21T07:25:01;75.00;;;39.80;;
11255;SDS011;5685;52.384;13.420;2023-04-21T07:28:06;74.20;;;39.47;;
11255;SDS011;5685;52.384;13.420;2023-04-21T07:31:10;74.37;;;39.63;;
11255;SDS011;5685;52.384;13.420;2023-04-21T07:34:12;74.37;;;39.73;;
11255;SDS011;5685;52.384;13.420;2023-04-21T07:37:15;74.13;;;39.50;;
11255;SDS011;5685;52.384;13.420;2023-04-21T07:40:18;74.27;;;39.60;;
11255;SDS011;5685;52.384;13.420;2023-04-21T07:43:22;74.43;;;39.60;;
11255;SDS011;5685;52.384;13.420;2023-04-21T07:46:25;74.40;;;39.50;;
11255;SDS011;5685;52.384;13.420;2023-04-21T07:49:31;74.57;;;39.70;;
11255;SDS011;5685;52.384;13.420;2023-04-21T07:52:33;74.07;;;39.50;;
11255;SDS011;5685;52.384;13.420;2023-04-21T07:55:36;74.23;;;39.70;;
11255;SDS011;5685;52.384;13.420;2023-04-21T07:58:40;74.27;;;39.70;;
11255;SDS011;5685;52.384;13.420;2023-04-21T08:01:42;74.03;;;39.63;;
11255;SDS011;5685;52.384;13.420;2023-04-21T08:04:45;74.30;;;39.57;;
11255;SDS011;5685;52.384;13.420;2023-04-21T08:07:47;73.73;;;39.53;;
11255;SDS011;5685;52.384;13.420;2023-04-21T08:10:50;74.70;;;39.80;;
11255;SDS011;5685;52.384;13.420;2023-04-21T08:13:55;74.40;;;39.80;;
11255;SDS011;5685;52.384;13.420;2023-04-21T08:16:58;73.90;;;39.40;;
11255;SDS011;5685;52.384;13.420;2023-04-21T08:20:00;74.60;;;39.80;;
11255;SDS011;5685;52.384;13.420;2023-04-21T08:23:03;74.57;;;39.80;;
11255;SDS011;5685;52.384;13.420;2023-04-21T08:26:05;74.50;;;39.70;;
11255;SDS011;5685;52.384;13.420;2023-04-21T08:29:11;74.27;;;39.70;;
11255;SDS011;5685;52.384;13.420;2023-04-21T08:32:13;74.20;;;39.67;;
11255;SDS011;5685;52.384;13.420;2023-04-21T08:35:21;74.50;;;39.80;;
11255;SDS011;5685;52.384;13.420;2023-04-21T08:38:24;74.30;;;39.70;;
11255;SDS011;5685;52.384;13.420;2023-04-21T08:41:26;74.30;;;39.60;;
11255;SDS011;5685;52.384;13.420;2023-04-21T08:44:30;74.47;;;39.63;;
11255;SDS011;5685;52.384;13.420;2023-04-21T08:47:33;74.90;;;39.90;;
11255;SDS011;5685;52.384;13.420;2023-04-21T08:50:36;74.90;;;39.80;;
11255;SDS011;5685;52.384;13.420;2023-04-21T08:53:39;74.63;;;39.77;;
11255;SDS011;5685;52.384;13.420;2023-04-21T08:56:42;74.60;;;39.80;;
11255;SDS011;5685;52.384;13.420;2023-04-21T08:59:46;74.60;;;39.97;;
11255;SDS011;5685;52.384;13.420;2023-04-21T09:02:52;74.60;;;39.80;;
11255;SDS011;5685;52.384;13.420;2023-04-21T09:05:56;75.20;;;40.43;;
11255;SDS011;5685;52.384;13.420;2023-04-21T09:08:59;74.70;;;39.90;;
11255;SDS011;5685;52.384;13.420;2023-04-21T09:12:04;74.27;;;39.63;;
11255;SDS011;5685;52.384;13.420;2023-04-21T09:15:10;74.10;;;39.50;;
11255;SDS011;5685;52.384;13.420;2023-04-21T09:18:13;74.53;;;39.80;;
11255;SDS011;5685;52.384;13.420;2023-04-21T09:21:17;74.90;;;39.87;;
11255;SDS011;5685;52.384;13.420;2023-04-21T09:24:22;75.20;;;40.00;;
11255;SDS011;5685;52.384;13.420;2023-04-21T09:27:24;74.83;;;40.00;;
11255;SDS011;5685;52.384;13.420;2023-04-21T09:30:28;74.60;;;39.80;;
11255;SDS011;5685;52.384;13.420;2023-04-21T09:33:32;74.50;;;39.80;;
11255;SDS011;5685;52.384;13.420;2023-04-21T09:36:35;74.50;;;39.77;;
11255;SDS011;5685;52.384;13.420;2023-04-21T09:39:38;74.77;;;39.80;;
11255;SDS011;5685;52.384;13.420;2023-04-21T09:42:41;74.70;;;39.90;;
11255;SDS011;5685;52.384;13.420;2023-04-21T09:45:45;74.13;;;39.60;;
11255;SDS011;5685;52.384;13.420;2023-04-21T09:48:48;74.73;;;39.80;;
11255;SDS011;5685;52.384;13.420;2023-04-21T09:51:51;74.63;;;39.80;;
11255;SDS011;5685;52.384;13.420;2023-04-21T09:54:56;75.00;;;39.97;;
11255;SDS011;5685;52.384;13.420;2023-04-21T09:58:03;75.27;;;40.10;;
11255;SDS011;5685;52.384;13.420;2023-04-21T10:01:10;74.80;;;39.90;;
11255;SDS011;5685;52.384;13.420;2023-04-21T10:04:13;75.03;;;40.10;;
11255;SDS011;5685;52.384;13.420;2023-04-21T10:07:16;75.00;;;39.97;;
11255;SDS011;5685;52.384;13.420;2023-04-21T10:10:19;74.77;;;40.10;;
11255;SDS011;5685;52.384;13.420;2023-04-21T10:13:25;74.90;;;39.90;;
11255;SDS011;5685;52.384;13.420;2023-04-21T10:16:29;74.57;;;39.80;;
11255;SDS011;5685;52.384;13.420;2023-04-21T10:19:33;74.63;;;39.90;;
11255;SDS011;5685;52.384;13.420;2023-04-21T10:22:38;74.67;;;40.00;;
11255;SDS011;5685;52.384;13.420;2023-04-21T10:25:46;74.90;;;40.03;;
11255;SDS011;5685;52.384;13.420;2023-04-21T10:28:53;74.90;;;40.10;;
11255;SDS011;5685;52.384;13.420;2023-04-21T10:31:58;74.17;;;39.67;;
11255;SDS011;5685;52.384;13.420;2023-04-21T10:35:01;74.90;;;40.07;;
11255;SDS011;5685;52.384;13.420;2023-04-21T10:38:05;74.37;;;39.77;;
11255;SDS011;5685;52.384;13.420;2023-04-21T10:41:24;74.63;;;40.13;;
11255;SDS011;5685;52.384;13.420;2023-04-21T10:44:27;74.37;;;39.80;;
11255;SDS011;5685;52.384;13.420;2023-04-21T10:47:35;74.47;;;39.90;;
11255;SDS011;5685;52.384;13.420;2023-04-21T10:50:43;74.80;;;40.00;;
11255;SDS011;5685;52.384;13.420;2023-04-21T10:53:49;74.57;;;40.00;;
11255;SDS011;5685;52.384;13.420;2023-04-21T10:56:53;74.80;;;40.10;;
11255;SDS011;5685;52.384;13.420;2023-04-21T10:59:56;74.80;;;40.10;;
11255;SDS011;5685;52.384;13.420;2023-04-21T11:03:01;74.50;;;40.07;;
11255;SDS011;5685;52.384;13.420;2023-04-21T11:06:12;74.50;;;40.00;;
11255;SDS011;5685;52.384;13.420;2023-04-21T11:09:17;74.60;;;39.90;;
11255;SDS011;5685;52.384;13.420;2023-04-21T11:12:19;74.70;;;39.90;;
11255;SDS011;5685;52.384;13.420;2023-04-21T11:15:22;74.50;;;39.80;;
11255;SDS011;5685;52.384;13.420;2023-04-21T11:18:39;74.60;;;39.93;;
11255;SDS011;5685;52.384;13.420;2023-04-21T11:21:42;74.80;;;40.10;;
11255;SDS011;5685;52.384;13.420;2023-04-21T11:24:45;74.83;;;40.10;;
11255;SDS011;5685;52.384;13.420;2023-04-21T11:27:53;74.27;;;39.90;;
11255;SDS011;5685;52.384;13.420;2023-04-21T11:30:56;74.40;;;39.90;;
11255;SDS011;5685;52.384;13.420;2023-04-21T11:34:00;75.13;;;40.20;;
11255;SDS011;5685;52.384;13.420;2023-04-21T11:37:05;74.70;;;40.03;;
11255;SDS011;5685;52.384;13.420;2023-04-21T11:40:08;74.70;;;40.00;;
11255;SDS011;5685;52.384;13.420;2023-04-21T11:43:11;74.70;;;40.00;;
11255;SDS011;5685;52.384;13.420;2023-04-21T11:46:21;74.57;;;40.10;;
11255;SDS011;5685;52.384;13.420;2023-04-21T11:49:26;74.67;;;40.10;;
11255;SDS011;5685;52.384;13.420;2023-04-21T11:52:30;74.60;;;39.97;;
11255;SDS011;5685;52.384;13.420;2023-04-21T11:55:33;74.50;;;39.80;;
11255;SDS011;5685;52.384;13.420;2023-04-21T11:58:36;74.33;;;39.73;;
11255;SDS011;5685;52.384;13.420;2023-04-21T12:01:42;74.27;;;39.87;;
11255;SDS011;5685;52.384;13.420;2023-04-21T12:04:56;74.37;;;39.77;;
11255;SDS011;5685;52.384;13.420;2023-04-21T12:08:02;74.30;;;39.80;;
11255;SDS011;5685;52.384;13.420;2023-04-21T12:11:06;74.57;;;39.90;;
11255;SDS011;5685;52.384;13.420;2023-04-21T12:14:10;73.93;;;39.57;;
11255;SDS011;5685;52.384;13.420;2023-04-21T12:17:12;74.20;;;39.77;;
11255;SDS011;5685;52.384;13.420;2023-04-21T12:20:17;74.17;;;39.77;;
11255;SDS011;5685;52.384;13.420;2023-04-21T12:23:20;74.20;;;39.70;;
11255;SDS011;5685;52.384;13.420;2023-04-21T12:26:23;74.33;;;39.90;;
11255;SDS011;5685;52.384;13.420;2023-04-21T12:29:26;74.70;;;40.10;;
11255;SDS011;5685;52.384;13.420;2023-04-21T12:32:28;74.27;;;39.90;;
11255;SDS011;5685;52.384;13.420;2023-04-21T12:35:32;74.87;;;40.00;;
11255;SDS011;5685;52.384;13.420;2023-04-21T12:38:35;73.57;;;39.57;;
11255;SDS011;5685;52.384;13.420;2023-04-21T12:41:38;74.57;;;40.00;;
11255;SDS011;5685;52.384;13.420;2023-04-21T12:44:40;74.43;;;40.03;;
11255;SDS011;5685;52.384;13.420;2023-04-21T12:47:43;74.83;;;40.10;;
11255;SDS011;5685;52.384;13.420;2023-04-21T12:50:47;75.03;;;40.20;;
11255;SDS011;5685;52.384;13.420;2023-04-21T12:53:50;74.83;;;40.00;;
11255;SDS011;5685;52.384;13.420;2023-04-21T12:56:52;74.60;;;39.97;;
11255;SDS011;5685;52.384;13.420;2023-04-21T12:59:55;74.87;;;40.20;;
11255;SDS011;5685;52.384;13.420;2023-04-21T13:02:58;74.97;;;40.20;;
11255;SDS011;5685;52.384;13.420;2023-04-21T13:06:02;74.60;;;40.10;;
11255;SDS011;5685;52.384;13.420;2023-04-21T13:09:05;74.50;;;40.07;;
11255;SDS011;5685;52.384;13.420;2023-04-21T13:12:08;75.17;;;40.40;;
11255;SDS011;5685;52.384;13.420;2023-04-21T13:15:10;74.70;;;40.10;;
11255;SDS011;5685;52.384;13.420;2023-04-21T13:18:13;75.40;;;40.47;;
11255;SDS011;5685;52.384;13.420;2023-04-21T13:21:17;74.80;;;40.07;;
11255;SDS011;5685;52.384;13.420;2023-04-21T13:24:20;74.87;;;40.20;;
11255;SDS011;5685;52.384;13.420;2023-04-21T13:27:22;74.33;;;39.87;;
11255;SDS011;5685;52.384;13.420;2023-04-21T13:30:25;75.10;;;40.33;;
11255;SDS011;5685;52.384;13.420;2023-04-21T13:33:28;75.30;;;41.47;;
11255;SDS011;5685;52.384;13.420;2023-04-21T13:36:35;74.90;;;40.03;;
11255;SDS011;5685;52.384;13.420;2023-04-21T13:39:38;75.20;;;40.20;;
11255;SDS011;5685;52.384;13.420;2023-04-21T13:42:40;74.77;;;40.10;;
11255;SDS011;5685;52.384;13.420;2023-04-21T13:45:43;75.37;;;40.37;;
11255;SDS011;5685;52.384;13.420;2023-04-21T13:48:47;74.90;;;40.27;;
11255;SDS011;5685;52.384;13.420;2023-04-21T13:51:52;74.97;;;40.23;;
11255;SDS011;5685;52.384;13.420;2023-04-21T13:54:54;74.80;;;40.13;;
11255;SDS011;5685;52.384;13.420;2023-04-21T13:57:57;75.30;;;40.30;;
11255;SDS011;5685;52.384;13.420;2023-04-21T14:01:00;75.27;;;40.40;;
11255;SDS011;5685;52.384;13.420;2023-04-21T14:04:03;75.00;;;40.20;;
11255;SDS011;5685;52.384;13.420;2023-04-21T14:07:07;75.10;;;40.20;;
11255;SDS011;5685;52.384;13.420;2023-04-21T14:10:10;75.23;;;40.30;;
11255;SDS011;5685;52.384;13.420;2023-04-21T14:13:12;75.70;;;40.60;;
11255;SDS011;5685;52.384;13.420;2023-04-21T14:16:15;75.10;;;40.30;;
11255;SDS011;5685;52.384;13.420;2023-04-21T14:19:18;76.00;;;40.70;;
11255;SDS011;5685;52.384;13.420;2023-04-21T14:22:22;75.40;;;40.37;;
11255;SDS011;5685;52.384;13.420;2023-04-21T14:25:24;75.50;;;40.50;;
11255;SDS011;5685;52.384;13.420;2023-04-21T14:28:27;75.37;;;40.50;;
11255;SDS011;5685;52.384;13.420;2023-04-21T14:31:30;75.60;;;40.67;;
11255;SDS011;5685;52.384;13.420;2023-04-21T14:34:32;75.20;;;40.33;;
11255;SDS011;5685;52.384;13.420;2023-04-21T14:37:37;75.47;;;40.50;;
11255;SDS011;5685;52.384;13.420;2023-04-21T14:40:39;75.47;;;40.47;;
11255;SDS011;5685;52.384;13.420;2023-04-21T14:43:42;75.50;;;40.47;;
11255;SDS011;5685;52.384;13.420;2023-04-21T14:46:45;75.73;;;40.60;;
11255;SDS011;5685;52.384;13.420;2023-04-21T14:49:47;75.17;;;40.40;;
11255;SDS011;5685;52.384;13.420;2023-04-21T14:52:53;75.00;;;40.30;;
11255;SDS011;5685;52.384;13.420;2023-04-21T14:55:55;75.57;;;40.57;;
11255;SDS011;5685;52.384;13.420;2023-04-21T14:58:58;75.73;;;40.80;;
11255;SDS011;5685;52.384;13.420;2023-04-21T15:02:01;76.00;;;40.83;;
11255;SDS011;5685;52.384;13.420;2023-04-21T15:05:04;76.23;;;40.80;;
11255;SDS011;5685;52.384;13.420;2023-04-21T15:08:09;75.80;;;40.73;;
11255;SDS011;5685;52.384;13.420;2023-04-21T15:11:17;75.93;;;40.60;;
11255;SDS011;5685;52.384;13.420;2023-04-21T15:14:19;75.57;;;40.60;;
11255;SDS011;5685;52.384;13.420;2023-04-21T15:17:22;75.90;;;40.70;;
11255;SDS011;5685;52.384;13.420;2023-04-21T15:20:24;76.30;;;40.90;;
11255;SDS011;5685;52.384;13.420;2023-04-21T15:23:28;75.93;;;40.73;;
11255;SDS011;5685;52.384;13.420;2023-04-21T15:26:32;75.90;;;40.73;;
11255;SDS011;5685;52.384;13.420;2023-04-21T15:29:36;75.80;;;40.70;;
11255;SDS011;5685;52.384;13.420;2023-04-21T15:32:38;75.53;;;40.60;;
11255;SDS011;5685;52.384;13.420;2023-04-21T15:35:41;75.60;;;40.70;;
11255;SDS011;5685;52.384;13.420;2023-04-21T15:38:45;75.80;;;40.77;;
11255;SDS011;5685;52.384;13.420;2023-04-21T15:41:48;75.60;;;40.73;;
11255;SDS011;5685;52.384;13.420;2023-04-21T15:44:52;75.90;;;40.70;;
11255;SDS011;5685;52.384;13.420;2023-04-21T15:47:56;75.63;;;40.73;;
11255;SDS011;5685;52.384;13.420;2023-04-21T15:50:58;75.50;;;40.60;;
11255;SDS011;5685;52.384;13.420;2023-04-21T15:54:02;75.53;;;40.60;;
11255;SDS011;5685;52.384;13.420;2023-04-21T15:57:05;75.60;;;40.67;;
11255;SDS011;5685;52.384;13.420;2023-04-21T16:00:08;75.87;;;40.77;;
11255;SDS011;5685;52.384;13.420;2023-04-21T16:03:11;75.63;;;40.63;;
11255;SDS011;5685;52.384;13.420;2023-04-21T16:06:15;75.87;;;40.80;;
11255;SDS011;5685;52.384;13.420;2023-04-21T16:09:19;76.33;;;40.90;;
11255;SDS011;5685;52.384;13.420;2023-04-21T16:12:21;75.83;;;40.73;;
11255;SDS011;5685;52.384;13.420;2023-04-21T16:15:24;75.80;;;40.70;;
11255;SDS011;5685;52.384;13.420;2023-04-21T16:18:27;75.87;;;40.70;;
11255;SDS011;5685;52.384;13.420;2023-04-21T16:21:29;76.30;;;41.07;;
11255;SDS011;5685;52.384;13.420;2023-04-21T16:24:33;76.00;;;40.90;;
11255;SDS011;5685;52.384;13.420;2023-04-21T16:27:36;75.90;;;41.00;;
11255;SDS011;5685;52.384;13.420;2023-04-21T16:30:38;76.10;;;40.90;;
11255;SDS011;5685;52.384;13.420;2023-04-21T16:33:42;76.10;;;40.97;;
11255;SDS011;5685;52.384;13.420;2023-04-21T16:36:45;76.00;;;40.90;;
11255;SDS011;5685;52.384;13.420;2023-04-21T16:39:49;76.07;;;40.90;;
11255;SDS011;5685;52.384;13.420;2023-04-21T16:42:51;75.97;;;40.80;;
11255;SDS011;5685;52.384;13.420;2023-04-21T16:45:54;75.67;;;40.80;;
11255;SDS011;5685;52.384;13.420;2023-04-21T16:48:56;75.50;;;40.80;;
11255;SDS011;5685;52.384;13.420;2023-04-21T16:51:59;75.87;;;40.77;;
11255;SDS011;5685;52.384;13.420;2023-04-21T16:55:03;76.03;;;40.90;;
11255;SDS011;5685;52.384;13.420;2023-04-21T16:58:07;75.63;;;40.73;;
11255;SDS011;5685;52.384;13.420;2023-04-21T17:01:10;76.00;;;40.90;;
11255;SDS011;5685;52.384;13.420;2023-04-21T17:04:12;75.53;;;40.77;;
11255;SDS011;5685;52.384;13.420;2023-04-21T17:07:15;75.77;;;40.80;;
11255;SDS011;5685;52.384;13.420;2023-04-21T17:10:19;75.07;;;40.43;;
11255;SDS011;5685;52.384;13.420;2023-04-21T17:13:23;76.00;;;41.00;;
11255;SDS011;5685;52.384;13.420;2023-04-21T17:16:26;75.80;;;40.80;;
11255;SDS011;5685;52.384;13.420;2023-04-21T17:19:28;75.90;;;40.83;;
11255;SDS011;5685;52.384;13.420;2023-04-21T17:22:30;75.60;;;40.70;;
11255;SDS011;5685;52.384;13.420;2023-04-21T17:25:34;75.37;;;40.60;;
11255;SDS011;5685;52.384;13.420;2023-04-21T17:28:37;75.60;;;40.70;;
11255;SDS011;5685;52.384;13.420;2023-04-21T17:31:40;75.90;;;40.80;;
11255;SDS011;5685;52.384;13.420;2023-04-21T17:34:43;75.93;;;40.90;;
11255;SDS011;5685;52.384;13.420;2023-04-21T17:37:45;75.83;;;40.80;;
11255;SDS011;5685;52.384;13.420;2023-04-21T17:40:50;76.00;;;40.80;;
11255;SDS011;5685;52.384;13.420;2023-04-21T17:43:52;75.67;;;40.77;;
11255;SDS011;5685;52.384;13.420;2023-04-21T17:46:55;75.90;;;40.87;;
11255;SDS011;5685;52.384;13.420;2023-04-21T17:49:58;76.07;;;40.93;;
11255;SDS011;5685;52.384;13.420;2023-04-21T17:53:01;76.13;;;40.90;;